Time;durP1;ratioP1;P1;durP2;ratioP2;P2;SDS_P1;SDS_P2;PMS_P1;PMS_P2;Temp;Humidity;BMP_temperature;BMP_pressure;BME280_temperature;BME280_humidity;BME280_pressure;Samples;Min_cycle;Max_cycle;Signal;HPM_P1;HPM_P2
2021/06/27 00:00:26;;;;;;;8.77;5.57;;;20.40;99.90;;;;;;5076712;28;20224;-52
2021/06/27 00:02:52;;;;;;;6.60;5.10;;;20.40;99.90;;;;;;5076475;28;20193;-51
2021/06/27 00:05:22;;;;;;;6.13;5.63;;;20.50;99.90;;;;;;5075558;28;20539;-53
2021/06/27 00:07:50;;;;;;;6.00;5.50;;;20.40;99.90;;;;;;5076595;28;20244;-59
2021/06/27 00:10:19;;;;;;;6.40;5.80;;;20.40;99.90;;;;;;5075676;28;20549;-60
2021/06/27 00:12:45;;;;;;;5.93;5.43;;;20.40;99.90;;;;;;5076404;28;20638;-57
2021/06/27 00:15:14;;;;;;;5.93;5.43;;;20.40;99.90;;;;;;5076759;28;20184;-55
2021/06/27 00:17:40;;;;;;;6.33;5.73;;;20.30;99.90;;;;;;5075245;28;20214;-55
2021/06/27 00:20:12;;;;;;;5.77;5.20;;;20.30;99.90;;;;;;5076589;28;20220;-55
2021/06/27 00:22:37;;;;;;;7.10;5.77;;;20.30;99.90;;;;;;5075308;28;20171;-59
2021/06/27 00:25:07;;;;;;;6.03;5.53;;;20.20;99.90;;;;;;5076654;28;20163;-59
2021/06/27 00:27:32;;;;;;;7.10;5.80;;;20.10;99.90;;;;;;5076667;28;20191;-60
2021/06/27 00:29:58;;;;;;;6.60;6.00;;;20.20;99.90;;;;;;5076072;28;20177;-54
2021/06/27 00:32:23;;;;;;;6.60;6.00;;;20.10;99.90;;;;;;5076095;28;20174;-59
2021/06/27 00:34:49;;;;;;;6.07;5.53;;;20.10;99.90;;;;;;5075102;28;20715;-51
2021/06/27 00:37:15;;;;;;;6.83;5.50;;;20.00;99.90;;;;;;5076334;28;20210;-56
2021/06/27 00:39:40;;;;;;;7.10;6.40;;;20.00;99.90;;;;;;5076432;28;20171;-59
2021/06/27 00:42:06;;;;;;;7.73;5.90;;;19.90;99.90;;;;;;5075073;28;20185;-59
2021/06/27 00:44:32;;;;;;;6.70;6.07;;;19.80;99.90;;;;;;5075903;28;20166;-59
2021/06/27 00:46:57;;;;;;;6.40;5.80;;;19.80;99.90;;;;;;5075189;28;20285;-59
2021/06/27 00:49:23;;;;;;;6.63;5.93;;;19.80;99.90;;;;;;5075999;28;20225;-58
2021/06/27 00:51:48;;;;;;;6.20;5.70;;;19.80;99.90;;;;;;5075466;28;20175;-57
2021/06/27 00:54:15;;;;;;;6.63;6.03;;;19.70;99.90;;;;;;5075404;28;20175;-59
2021/06/27 00:56:44;;;;;;;7.03;6.33;;;19.80;99.90;;;;;;5074618;28;20191;-54
2021/06/27 00:59:09;;;;;;;6.20;5.60;;;19.70;99.90;;;;;;5075722;28;20214;-58
2021/06/27 01:01:35;;;;;;;6.73;5.83;;;19.70;99.90;;;;;;5075251;28;20211;-59
2021/06/27 01:04:01;;;;;;;6.97;6.37;;;19.70;99.90;;;;;;5074887;28;20190;-53
2021/06/27 01:06:26;;;;;;;7.53;5.93;;;19.70;99.90;;;;;;5075525;28;20175;-54
2021/06/27 01:08:52;;;;;;;8.30;6.40;;;19.60;99.90;;;;;;5073184;28;20186;-57
2021/06/27 01:11:17;;;;;;;7.03;6.33;;;19.60;99.90;;;;;;5075380;28;20273;-60
2021/06/27 01:13:43;;;;;;;6.57;5.97;;;19.60;99.90;;;;;;5067258;28;20204;-54
2021/06/27 01:16:08;;;;;;;8.23;6.23;;;19.50;99.90;;;;;;5068774;28;20186;-59
2021/06/27 01:18:34;;;;;;;6.67;6.07;;;19.50;99.90;;;;;;5074466;28;20670;-60
2021/06/27 01:21:07;;;;;;;7.07;6.47;;;19.50;99.90;;;;;;5075205;28;20170;-53
2021/06/27 01:23:33;;;;;;;6.73;6.13;;;19.50;99.90;;;;;;5075551;28;20189;-57
2021/06/27 01:25:59;;;;;;;7.37;6.03;;;19.50;99.90;;;;;;5075397;28;20213;-53
2021/06/27 01:28:24;;;;;;;6.63;6.03;;;19.50;99.90;;;;;;5073957;28;20213;-50
2021/06/27 01:30:50;;;;;;;6.70;6.00;;;19.50;99.90;;;;;;5074796;28;20626;-51
2021/06/27 01:33:18;;;;;;;6.63;5.93;;;19.40;99.90;;;;;;5073961;28;20186;-60
2021/06/27 01:35:45;;;;;;;7.07;6.40;;;19.40;99.90;;;;;;5075493;28;20205;-54
2021/06/27 01:38:13;;;;;;;6.60;6.00;;;19.40;99.90;;;;;;5074757;28;20674;-56
2021/06/27 01:40:39;;;;;;;6.83;6.13;;;19.40;99.90;;;;;;5074846;28;20228;-50
2021/06/27 01:43:25;;;;;;;6.90;6.30;;;19.40;99.90;;;;;;5073750;28;20285;-53
2021/06/27 01:45:53;;;;;;;6.70;6.10;;;19.30;99.90;;;;;;5074470;28;20715;-55
2021/06/27 01:48:19;;;;;;;6.47;5.87;;;19.30;99.90;;;;;;5074097;28;20206;-52
2021/06/27 01:50:48;;;;;;;6.30;5.80;;;19.30;99.90;;;;;;5074622;28;20179;-59
2021/06/27 01:53:15;;;;;;;6.73;6.13;;;19.30;99.90;;;;;;5074627;28;20178;-60
2021/06/27 01:55:42;;;;;;;7.07;6.43;;;19.30;99.90;;;;;;5074817;28;20181;-53
2021/06/27 01:58:08;;;;;;;6.33;5.73;;;19.30;99.90;;;;;;5075105;28;20571;-52
2021/06/27 02:00:38;;;;;;;6.83;6.00;;;19.30;99.90;;;;;;5074684;28;20682;-53
2021/06/27 02:03:04;;;;;;;6.73;6.03;;;19.30;99.90;;;;;;5073083;28;20202;-59
2021/06/27 02:05:30;;;;;;;6.13;5.53;;;19.20;99.90;;;;;;5075228;28;20265;-57
2021/06/27 02:07:58;;;;;;;6.70;6.10;;;19.20;99.90;;;;;;5073264;28;20535;-60
2021/06/27 02:10:25;;;;;;;12.27;6.30;;;19.20;99.90;;;;;;5074351;28;20179;-60
2021/06/27 02:12:52;;;;;;;6.50;5.90;;;19.10;99.90;;;;;;5074253;28;20170;-52
2021/06/27 02:15:18;;;;;;;6.23;5.63;;;19.10;99.90;;;;;;5073167;28;20719;-56
2021/06/27 02:17:51;;;;;;;7.53;6.10;;;19.10;99.90;;;;;;5074334;28;20217;-54
2021/06/27 02:20:17;;;;;;;6.43;5.83;;;19.00;99.90;;;;;;5074025;28;20654;-56
2021/06/27 02:22:43;;;;;;;6.07;5.57;;;19.00;99.90;;;;;;5073749;28;20224;-58
2021/06/27 02:25:09;;;;;;;5.80;5.30;;;19.00;99.90;;;;;;5073626;28;20171;-56
2021/06/27 02:27:35;;;;;;;6.27;5.67;;;19.00;99.90;;;;;;5074275;28;20292;-55
2021/06/27 02:30:00;;;;;;;6.00;5.50;;;18.90;99.90;;;;;;5073853;28;20214;-55
2021/06/27 02:32:26;;;;;;;6.40;5.80;;;19.00;99.90;;;;;;5073759;28;20177;-54
2021/06/27 02:34:51;;;;;;;7.23;6.10;;;18.90;99.90;;;;;;5072863;28;20193;-52
2021/06/27 02:37:17;;;;;;;6.97;6.37;;;19.00;99.90;;;;;;5074595;28;20210;-52
2021/06/27 02:39:43;;;;;;;6.73;6.13;;;18.90;99.90;;;;;;5073672;28;20177;-55
2021/06/27 02:42:08;;;;;;;8.57;5.50;;;18.90;99.90;;;;;;5073370;28;20182;-60
2021/06/27 02:44:34;;;;;;;6.37;5.87;;;18.90;99.90;;;;;;5073933;28;20177;-58
2021/06/27 02:46:59;;;;;;;6.43;5.87;;;18.90;99.90;;;;;;5072838;28;20202;-57
2021/06/27 02:49:25;;;;;;;5.97;5.37;;;18.90;99.90;;;;;;5074337;28;20184;-59
2021/06/27 02:51:51;;;;;;;6.63;6.03;;;18.80;99.90;;;;;;5073792;28;20230;-59
2021/06/27 02:54:16;;;;;;;5.83;5.33;;;18.80;99.90;;;;;;5073276;28;20555;-59
2021/06/27 02:56:42;;;;;;;6.57;5.97;;;18.80;99.90;;;;;;5073769;28;20208;-58
2021/06/27 02:59:07;;;;;;;6.57;5.97;;;18.80;99.90;;;;;;5073513;28;20208;-55
2021/06/27 03:01:33;;;;;;;7.00;6.40;;;18.80;99.90;;;;;;5073495;28;20180;-55
2021/06/27 03:03:58;;;;;;;6.43;5.87;;;18.80;99.90;;;;;;5072702;28;20678;-53
2021/06/27 03:06:24;;;;;;;7.33;6.20;;;18.80;99.90;;;;;;5073466;28;20240;-51
2021/06/27 03:08:49;;;;;;;6.40;5.80;;;18.80;99.90;;;;;;5072696;28;20207;-57
2021/06/27 03:11:16;;;;;;;6.20;5.70;;;18.70;99.90;;;;;;5073594;28;20255;-58
2021/06/27 03:13:43;;;;;;;6.53;5.93;;;18.70;99.90;;;;;;5073586;28;20236;-51
2021/06/27 03:16:09;;;;;;;6.90;6.30;;;18.70;99.90;;;;;;5073458;28;20192;-57
2021/06/27 03:18:35;;;;;;;7.13;6.10;;;18.70;99.90;;;;;;5073463;28;20212;-56
2021/06/27 03:21:01;;;;;;;6.40;5.80;;;18.70;99.90;;;;;;5076710;28;20177;-51
2021/06/27 03:23:26;;;;;;;6.73;6.00;;;18.80;99.90;;;;;;5076652;28;20196;-57
2021/06/27 03:25:55;;;;;;;6.40;5.90;;;18.80;99.90;;;;;;5077617;28;20176;-57
2021/06/27 03:28:21;;;;;;;6.80;6.20;;;18.80;99.90;;;;;;5076537;28;20206;-58
2021/06/27 03:30:48;;;;;;;6.50;5.90;;;18.80;99.90;;;;;;5077305;28;20263;-53
2021/06/27 03:33:14;;;;;;;6.40;5.80;;;18.80;99.90;;;;;;5077372;28;20186;-58
2021/06/27 03:35:39;;;;;;;6.53;6.03;;;18.80;99.90;;;;;;5076109;28;20205;-53
2021/06/27 03:38:20;;;;;;;7.10;6.40;;;18.80;99.90;;;;;;5077574;28;20291;-56
2021/06/27 03:40:46;;;;;;;8.27;6.80;;;18.70;99.90;;;;;;5076321;28;20175;-51
2021/06/27 03:43:11;;;;;;;6.57;5.97;;;18.70;99.90;;;;;;5077166;28;20601;-52
2021/06/27 03:45:38;;;;;;;6.63;6.03;;;18.70;99.90;;;;;;5075880;28;20193;-58
2021/06/27 03:48:05;;;;;;;7.20;6.13;;;18.70;99.90;;;;;;5077936;28;20277;-58
2021/06/27 03:50:30;;;;;;;6.77;6.17;;;18.70;99.90;;;;;;5076830;28;20182;-54
2021/06/27 03:52:56;;;;;;;6.80;6.20;;;18.80;99.90;;;;;;5076657;28;20191;-54
2021/06/27 03:55:21;;;;;;;6.53;5.93;;;18.80;99.90;;;;;;5076860;28;20230;-52
2021/06/27 03:57:48;;;;;;;7.07;6.37;;;18.80;99.90;;;;;;5075814;28;20742;-51
2021/06/27 04:00:16;;;;;;;6.10;5.60;;;18.90;99.90;;;;;;5076593;28;20167;-59
2021/06/27 04:02:42;;;;;;;6.17;5.67;;;18.90;99.90;;;;;;5075767;28;20184;-54
2021/06/27 04:05:09;;;;;;;6.47;5.90;;;18.90;99.90;;;;;;5076895;28;20171;-57
2021/06/27 04:07:35;;;;;;;6.77;6.07;;;18.90;99.90;;;;;;5076822;28;20202;-54
2021/06/27 04:10:00;;;;;;;6.37;5.80;;;18.90;99.90;;;;;;5076602;28;20178;-54
2021/06/27 04:12:26;;;;;;;6.50;5.80;;;19.00;99.90;;;;;;5075529;28;20752;-55
2021/06/27 04:14:51;;;;;;;6.23;5.63;;;19.00;99.90;;;;;;5076601;28;20171;-53
2021/06/27 04:17:20;;;;;;;6.20;5.70;;;19.00;99.90;;;;;;5076482;28;20214;-51
2021/06/27 04:19:46;;;;;;;6.47;5.87;;;19.10;99.90;;;;;;5075944;28;20178;-56
2021/06/27 04:22:12;;;;;;;6.27;5.77;;;19.10;99.90;;;;;;5076395;28;20180;-60
2021/06/27 04:24:37;;;;;;;6.90;6.30;;;19.20;99.90;;;;;;5075510;28;20658;-58
2021/06/27 04:27:03;;;;;;;6.63;6.03;;;19.20;99.90;;;;;;5076194;28;20277;-52
2021/06/27 04:29:29;;;;;;;6.40;5.80;;;19.10;99.90;;;;;;5076364;28;20653;-58
2021/06/27 04:31:54;;;;;;;5.77;5.27;;;19.20;99.90;;;;;;5074924;28;20177;-53
2021/06/27 04:34:20;;;;;;;7.67;5.90;;;19.30;99.90;;;;;;5076432;28;20174;-51
2021/06/27 04:36:47;;;;;;;6.33;5.27;;;19.40;99.90;;;;;;5075090;28;20293;-58
2021/06/27 04:39:15;;;;;;;6.07;5.57;;;19.40;99.90;;;;;;5076297;28;20258;-58
2021/06/27 04:41:42;;;;;;;6.00;5.37;;;19.50;99.90;;;;;;5075517;28;20226;-57
2021/06/27 04:44:08;;;;;;;6.40;5.80;;;19.50;99.90;;;;;;5075423;28;20178;-58
2021/06/27 04:46:34;;;;;;;5.80;5.30;;;19.60;99.90;;;;;;5074564;28;20535;-55
2021/06/27 04:48:59;;;;;;;5.90;5.40;;;19.70;99.90;;;;;;5076073;28;20260;-56
2021/06/27 04:51:25;;;;;;;5.83;5.33;;;19.80;99.90;;;;;;5075721;28;20205;-54
2021/06/27 04:53:51;;;;;;;5.80;5.30;;;19.90;99.90;;;;;;5075169;28;20186;-51
2021/06/27 04:56:16;;;;;;;5.80;5.17;;;20.00;99.90;;;;;;5075842;28;20261;-53
2021/06/27 04:58:42;;;;;;;6.63;5.53;;;20.00;99.90;;;;;;5074536;28;20562;-56
2021/06/27 05:01:07;;;;;;;6.07;5.47;;;20.10;99.90;;;;;;5075683;28;20571;-51
2021/06/27 05:03:33;;;;;;;5.83;5.17;;;20.20;99.90;;;;;;5075487;28;20658;-55
2021/06/27 05:05:58;;;;;;;5.83;5.23;;;20.20;99.90;;;;;;5074562;28;20186;-58
2021/06/27 05:08:24;;;;;;;5.83;5.33;;;20.30;99.90;;;;;;5075373;28;20267;-54
2021/06/27 05:10:50;;;;;;;5.67;5.10;;;20.40;99.90;;;;;;5074801;28;20178;-57
2021/06/27 05:13:16;;;;;;;6.20;5.70;;;21.40;99.90;;;;;;5075495;28;20197;-54
2021/06/27 05:15:42;;;;;;;5.50;5.00;;;20.40;99.90;;;;;;5075206;28;20175;-59
2021/06/27 05:18:07;;;;;;;5.43;4.97;;;20.50;99.90;;;;;;5075312;28;20206;-52
2021/06/27 05:20:33;;;;;;;5.83;5.33;;;20.60;99.90;;;;;;5075250;28;20190;-55
2021/06/27 05:22:58;;;;;;;5.83;5.20;;;20.60;99.90;;;;;;5074024;28;20183;-51
2021/06/27 05:25:24;;;;;;;5.77;5.27;;;20.70;99.90;;;;;;5075073;28;20649;-52
2021/06/27 05:27:49;;;;;;;5.57;5.13;;;20.70;99.90;;;;;;5074608;28;20197;-57
2021/06/27 05:30:15;;;;;;;5.70;5.20;;;20.80;99.90;;;;;;5074530;28;20171;-56
2021/06/27 05:32:41;;;;;;;5.57;5.07;;;20.90;99.90;;;;;;5075008;28;20182;-58
2021/06/27 05:35:07;;;;;;;5.90;5.30;;;21.00;99.90;;;;;;5074150;28;20554;-53
2021/06/27 05:37:32;;;;;;;5.50;5.00;;;21.00;99.90;;;;;;5075065;28;20237;-51
2021/06/27 05:39:58;;;;;;;5.50;5.00;;;21.20;99.90;;;;;;5074475;28;20690;-54
2021/06/27 05:42:24;;;;;;;5.30;4.90;;;21.20;99.90;;;;;;5073337;28;20693;-58
2021/06/27 05:44:49;;;;;;;5.50;5.00;;;21.30;99.90;;;;;;5074564;28;20170;-54
2021/06/27 05:47:15;;;;;;;5.33;4.93;;;21.20;99.90;;;;;;5064124;28;20294;-59
2021/06/27 05:49:40;;;;;;;5.80;5.30;;;21.30;99.90;;;;;;5071658;28;20179;-57
2021/06/27 05:52:06;;;;;;;5.73;5.33;;;21.40;99.90;;;;;;5073719;28;20197;-52
2021/06/27 05:54:32;;;;;;;5.37;4.87;;;21.50;99.90;;;;;;5074558;28;20167;-56
2021/06/27 05:56:57;;;;;;;5.70;5.20;;;21.50;99.90;;;;;;5074425;28;20593;-52
2021/06/27 05:59:23;;;;;;;5.67;5.17;;;21.60;99.90;;;;;;5073352;28;20178;-54
2021/06/27 06:01:48;;;;;;;5.60;5.10;;;21.60;99.90;;;;;;5074244;28;20163;-54
2021/06/27 06:04:14;;;;;;;5.30;4.80;;;21.80;99.90;;;;;;5074353;28;20238;-59
2021/06/27 06:06:39;;;;;;;5.85;5.35;;;21.90;99.90;;;;;;5074390;28;20166;-58
2021/06/27 06:09:05;;;;;;;5.10;4.70;;;21.90;99.90;;;;;;5073673;28;20321;-52
2021/06/27 06:11:30;;;;;;;5.38;4.85;;;22.00;99.90;;;;;;5074136;28;20569;-53
2021/06/27 06:13:56;;;;;;;5.50;5.00;;;22.10;99.90;;;;;;5073170;28;20222;-59
2021/06/27 06:16:22;;;;;;;5.40;4.97;;;22.10;99.90;;;;;;5074199;28;20626;-58
2021/06/27 06:18:47;;;;;;;5.23;4.73;;;22.20;99.90;;;;;;5073146;28;20194;-51
2021/06/27 06:21:14;;;;;;;17.27;15.48;;;22.30;99.90;;;;;;5074103;28;20256;-56
2021/06/27 06:23:40;;;;;;;5.55;4.72;;;22.50;99.90;;;;;;5074195;28;20187;-57
2021/06/27 06:26:06;;;;;;;4.97;4.57;;;22.40;99.90;;;;;;5074361;28;20196;-57
2021/06/27 06:28:32;;;;;;;5.78;4.60;;;22.20;99.90;;;;;;5074341;28;20535;-54
2021/06/27 06:30:58;;;;;;;5.05;4.65;;;22.30;99.90;;;;;;5073644;28;20580;-53
2021/06/27 06:33:23;;;;;;;5.45;4.68;;;22.50;99.90;;;;;;5072905;28;20664;-54
2021/06/27 06:35:49;;;;;;;5.00;4.60;;;22.60;99.90;;;;;;5073972;28;20199;-53
2021/06/27 06:38:14;;;;;;;6.65;4.93;;;22.70;99.90;;;;;;5073117;28;20198;-52
2021/06/27 06:40:40;;;;;;;5.30;4.88;;;22.60;99.90;;;;;;5074577;28;20176;-58
2021/06/27 06:43:06;;;;;;;5.30;4.90;;;22.70;99.90;;;;;;5073577;28;20608;-53
2021/06/27 06:45:33;;;;;;;5.75;5.30;;;23.10;99.90;;;;;;5072770;28;20193;-51
2021/06/27 06:47:59;;;;;;;5.13;4.72;;;22.50;99.90;;;;;;5074116;28;20496;-56
2021/06/27 06:50:25;;;;;;;4.53;4.22;;;22.50;99.90;;;;;;5072820;28;20652;-51
2021/06/27 06:52:51;;;;;;;5.15;4.55;;;22.60;99.90;;;;;;5074019;28;20179;-50
2021/06/27 06:55:16;;;;;;;4.78;4.40;;;22.70;99.90;;;;;;5073231;28;20177;-55
2021/06/27 06:57:42;;;;;;;5.03;4.63;;;22.80;99.90;;;;;;5073668;28;20202;-56
2021/06/27 07:00:09;;;;;;;4.53;4.13;;;22.90;99.90;;;;;;5073608;28;20171;-59
2021/06/27 07:02:36;;;;;;;4.68;4.28;;;23.10;99.90;;;;;;5073479;28;20179;-53
2021/06/27 07:05:01;;;;;;;4.53;4.13;;;23.40;99.90;;;;;;5072329;28;20197;-53
2021/06/27 07:07:27;;;;;;;4.43;4.10;;;23.70;99.90;;;;;;5072565;28;20686;-57
2021/06/27 07:09:52;;;;;;;4.68;4.28;;;23.70;99.90;;;;;;5074461;28;20186;-58
2021/06/27 07:12:18;;;;;;;4.32;4.00;;;23.80;99.90;;;;;;5072496;28;20239;-53
2021/06/27 07:14:45;;;;;;;4.50;4.10;;;23.70;99.90;;;;;;5073258;28;20184;-54
2021/06/27 07:17:11;;;;;;;4.50;4.20;;;23.90;99.90;;;;;;5073814;28;20195;-55
2021/06/27 07:19:36;;;;;;;5.25;4.40;;;23.80;99.90;;;;;;5073478;28;20177;-52
2021/06/27 07:22:02;;;;;;;4.85;3.92;;;23.70;99.90;;;;;;5072875;28;20191;-54
2021/06/27 07:24:28;;;;;;;5.22;4.40;;;23.70;99.90;;;;;;5073223;28;20167;-54
2021/06/27 07:26:53;;;;;;;4.60;4.20;;;23.90;99.90;;;;;;5073832;28;20269;-57
2021/06/27 07:29:19;;;;;;;4.38;4.00;;;24.00;99.90;;;;;;5071015;28;20174;-57
2021/06/27 07:31:44;;;;;;;4.60;4.10;;;24.10;99.90;;;;;;5073189;28;20175;-60
2021/06/27 07:34:10;;;;;;;4.60;4.20;;;24.10;99.90;;;;;;5073455;28;20167;-54
2021/06/27 07:36:35;;;;;;;4.18;3.88;;;23.80;99.90;;;;;;5072328;28;20246;-53
2021/06/27 07:39:01;;;;;;;6.72;3.72;;;24.00;99.90;;;;;;5073219;28;20247;-56
2021/06/27 07:41:26;;;;;;;4.90;3.97;;;24.20;99.90;;;;;;5072609;28;20317;-56
2021/06/27 07:43:53;;;;;;;4.20;3.90;;;24.10;99.90;;;;;;5073437;28;20163;-59
2021/06/27 07:46:19;;;;;;;11.23;4.15;;;24.10;99.90;;;;;;5073597;28;20272;-57
2021/06/27 07:48:45;;;;;;;4.50;4.10;;;24.20;99.90;;;;;;5073605;28;20251;-60
2021/06/27 07:51:10;;;;;;;4.03;3.70;;;24.40;99.90;;;;;;5073121;28;20273;-50
2021/06/27 07:53:36;;;;;;;4.10;3.75;;;24.60;99.90;;;;;;5072212;28;20191;-52
2021/06/27 07:56:02;;;;;;;4.70;3.88;;;24.90;99.90;;;;;;5073347;28;20182;-54
2021/06/27 07:58:28;;;;;;;4.20;3.90;;;25.30;99.90;;;;;;5072176;28;20761;-57
2021/06/27 08:00:53;;;;;;;3.90;3.60;;;25.50;99.90;;;;;;5073092;28;20202;-59
2021/06/27 08:03:19;;;;;;;4.55;4.15;;;25.70;99.90;;;;;;5073014;28;20554;-53
2021/06/27 08:05:44;;;;;;;4.53;4.18;;;25.60;99.90;;;;;;5073290;28;20554;-57
2021/06/27 08:08:10;;;;;;;4.60;4.28;;;25.70;99.90;;;;;;5076671;28;20183;-53
2021/06/27 08:10:36;;;;;;;3.80;3.50;;;25.60;99.90;;;;;;5075858;28;20179;-51
2021/06/27 08:13:02;;;;;;;4.80;3.83;;;25.80;99.90;;;;;;5076401;28;20189;-51
2021/06/27 08:15:28;;;;;;;4.50;4.10;;;26.10;99.90;;;;;;5076610;28;20179;-58
2021/06/27 08:17:54;;;;;;;4.45;4.05;;;26.00;99.90;;;;;;5076363;28;20209;-55
2021/06/27 08:20:22;;;;;;;4.50;4.10;;;25.90;99.90;;;;;;5076949;28;20167;-59
2021/06/27 08:22:48;;;;;;;5.07;4.47;;;25.80;99.90;;;;;;5075338;28;20673;-58
2021/06/27 08:25:14;;;;;;;4.35;4.05;;;25.70;99.90;;;;;;5076494;28;20185;-54
2021/06/27 08:27:40;;;;;;;4.15;3.85;;;25.70;99.90;;;;;;5076224;28;20267;-54
2021/06/27 08:30:09;;;;;;;4.22;3.92;;;25.80;99.90;;;;;;5075487;28;20236;-58
2021/06/27 08:32:36;;;;;;;3.95;3.65;;;26.00;99.90;;;;;;5076237;28;20503;-52
2021/06/27 08:35:03;;;;;;;4.30;4.00;;;25.70;99.90;;;;;;5076237;28;20167;-51
2021/06/27 08:37:28;;;;;;;4.30;3.95;;;25.50;99.90;;;;;;5074926;28;20276;-56
2021/06/27 08:39:54;;;;;;;4.00;3.70;;;25.50;99.90;;;;;;5076914;28;20170;-51
2021/06/27 08:42:21;;;;;;;3.72;3.40;;;25.60;99.90;;;;;;5075040;28;20205;-57
2021/06/27 08:44:48;;;;;;;3.90;3.60;;;25.70;99.90;;;;;;5076048;28;20645;-56
2021/06/27 08:47:18;;;;;;;3.42;3.13;;;25.80;99.90;;;;;;5074877;28;20206;-54
2021/06/27 08:49:51;;;;;;;4.15;3.75;;;25.80;99.90;;;;;;5076081;28;20219;-57
2021/06/27 08:52:18;;;;;;;3.67;3.35;;;25.80;99.90;;;;;;5075449;28;20163;-54
2021/06/27 08:54:45;;;;;;;4.15;3.60;;;26.00;99.90;;;;;;5075675;28;20179;-58
2021/06/27 08:57:13;;;;;;;3.95;3.60;;;26.30;99.90;;;;;;5076164;28;20194;-58
2021/06/27 08:59:39;;;;;;;4.10;3.70;;;26.30;99.90;;;;;;5075843;28;20175;-50
2021/06/27 09:02:04;;;;;;;3.72;3.42;;;26.40;99.90;;;;;;5074455;28;20265;-54
2021/06/27 09:04:33;;;;;;;3.67;3.47;;;26.50;99.90;;;;;;5075357;28;20206;-56
2021/06/27 09:07:30;;;;;;;3.90;3.60;;;26.40;99.90;;;;;;5076487;28;20199;-57
2021/06/27 09:10:01;;;;;;;3.33;3.10;;;26.20;99.90;;;;;;5075294;28;20150;-52
2021/06/27 09:12:30;;;;;;;4.00;3.67;;;25.90;99.90;;;;;;5075394;28;20170;-57
2021/06/27 09:14:56;;;;;;;4.07;3.70;;;25.70;99.90;;;;;;5075036;28;20264;-57
2021/06/27 09:17:24;;;;;;;3.63;3.40;;;25.80;99.90;;;;;;5074011;28;20190;-53
2021/06/27 09:19:53;;;;;;;3.70;3.40;;;25.90;99.90;;;;;;5074999;28;20198;-55
2021/06/27 09:22:22;;;;;;;3.53;3.22;;;26.00;99.90;;;;;;5075131;28;20498;-58
2021/06/27 09:24:48;;;;;;;3.40;3.20;;;26.20;99.90;;;;;;5075239;28;20198;-56
2021/06/27 09:27:16;;;;;;;3.38;3.17;;;26.20;99.90;;;;;;5074158;28;20202;-52
2021/06/27 09:29:41;;;;;;;3.17;2.85;;;26.40;99.90;;;;;;5075379;28;20174;-56
2021/06/27 09:32:24;;;;;;;3.10;2.88;;;26.40;99.90;;;;;;5074362;28;20171;-52
2021/06/27 09:34:50;;;;;;;2.90;2.70;;;26.60;99.90;;;;;;5075339;28;20174;-53
2021/06/27 09:37:26;;;;;;;2.65;2.45;;;26.30;99.90;;;;;;5075089;28;20198;-59
2021/06/27 09:40:02;;;;;;;2.90;2.70;;;26.40;99.90;;;;;;5075509;28;20170;-52
2021/06/27 09:42:29;;;;;;;2.85;2.65;;;26.80;99.90;;;;;;5073605;28;20603;-51
2021/06/27 09:45:08;;;;;;;2.53;2.42;;;27.00;99.90;;;;;;5074752;28;20217;-51
2021/06/27 09:47:35;;;;;;;2.65;2.40;;;27.20;99.90;;;;;;5074736;28;20187;-57
2021/06/27 09:50:20;;;;;;;2.70;2.50;;;27.50;99.90;;;;;;5074115;28;20179;-53
2021/06/27 09:52:46;;;;;;;2.65;2.50;;;27.50;99.90;;;;;;5074463;28;20214;-55
2021/06/27 09:55:15;;;;;;;2.20;2.10;;;27.70;99.90;;;;;;5073811;28;20551;-58
2021/06/27 09:57:41;;;;;;;2.30;2.20;;;27.90;99.90;;;;;;5074684;28;20202;-60
2021/06/27 10:00:22;;;;;;;2.20;2.10;;;27.90;99.90;;;;;;5074547;28;20510;-59
2021/06/27 10:03:00;;;;;;;2.50;2.30;;;27.90;99.90;;;;;;5073260;28;20184;-56
2021/06/27 10:05:26;;;;;;;2.47;2.33;;;27.90;99.90;;;;;;5074277;28;20192;-56
2021/06/27 10:07:52;;;;;;;2.40;2.30;;;27.60;99.90;;;;;;5074034;28;20194;-52
2021/06/27 10:10:19;;;;;;;2.35;2.15;;;27.40;99.90;;;;;;5074444;28;20203;-53
2021/06/27 10:12:44;;;;;;;2.67;2.47;;;27.40;99.90;;;;;;5072966;28;20174;-59
2021/06/27 10:15:13;;;;;;;2.20;2.10;;;27.40;99.90;;;;;;5074274;28;20182;-60
2021/06/27 10:17:38;;;;;;;2.33;2.20;;;27.70;99.90;;;;;;5074341;28;20566;-58
2021/06/27 10:20:04;;;;;;;2.15;2.05;;;28.00;99.90;;;;;;5066457;28;20175;-59
2021/06/27 10:22:31;;;;;;;2.63;2.42;;;28.00;99.90;;;;;;5068617;28;20232;-53
2021/06/27 10:24:57;;;;;;;2.70;2.53;;;28.00;99.90;;;;;;5074417;28;20624;-57
2021/06/27 10:27:24;;;;;;;2.45;2.33;;;27.80;99.90;;;;;;5073389;28;20698;-60
2021/06/27 10:29:50;;;;;;;2.60;2.40;;;27.60;99.90;;;;;;5074424;28;20249;-51
2021/06/27 10:32:18;;;;;;;2.70;2.50;;;27.60;99.90;;;;;;5073562;28;20202;-59
2021/06/27 10:34:45;;;;;;;2.58;2.38;;;27.60;99.90;;;;;;5073291;28;20688;-57
2021/06/27 10:37:17;;;;;;;2.30;2.20;;;27.70;99.90;;;;;;5073662;28;20542;-61
2021/06/27 10:40:08;;;;;;;2.80;2.63;;;28.20;99.90;;;;;;5073653;28;20166;-60
2021/06/27 10:42:49;;;;;;;2.35;2.25;;;28.70;99.90;;;;;;5073770;28;20174;-52
2021/06/27 10:45:21;;;;;;;2.45;2.25;;;28.50;99.90;;;;;;5072817;28;20174;-54
2021/06/27 10:47:48;;;;;;;2.47;2.28;;;28.40;99.90;;;;;;5074156;28;20186;-58
2021/06/27 10:50:15;;;;;;;2.10;2.00;;;28.70;99.90;;;;;;5074001;28;20232;-54
2021/06/27 10:52:50;;;;;;;2.50;2.30;;;28.90;99.90;;;;;;5073844;28;20530;-58
2021/06/27 10:55:21;;;;;;;2.33;2.22;;;29.10;99.90;;;;;;5072789;28;20225;-58
2021/06/27 10:57:56;;;;;;;2.58;2.00;;;29.30;99.90;;;;;;5074194;28;20289;-52
2021/06/27 11:00:23;;;;;;;2.33;2.13;;;29.30;99.90;;;;;;5072662;28;20166;-53
2021/06/27 11:02:49;;;;;;;2.30;2.20;;;29.30;99.80;;;;;;5073728;28;20190;-51
2021/06/27 11:05:32;;;;;;;2.67;2.47;;;29.40;98.50;;;;;;5072999;28;20201;-59
2021/06/27 11:08:00;;;;;;;2.25;2.15;;;29.50;98.70;;;;;;5073727;28;20543;-56
2021/06/27 11:10:27;;;;;;;2.13;2.03;;;29.80;99.90;;;;;;5073383;28;20183;-59
2021/06/27 11:12:59;;;;;;;2.90;2.63;;;29.90;99.10;;;;;;5073263;28;20177;-56
2021/06/27 11:15:29;;;;;;;2.00;1.90;;;29.90;99.90;;;;;;5073576;28;20171;-51
2021/06/27 11:18:08;;;;;;;2.28;2.17;;;30.10;99.90;;;;;;5073687;28;20289;-58
2021/06/27 11:20:44;;;;;;;2.38;2.28;;;30.10;98.10;;;;;;5074026;28;20170;-58
2021/06/27 11:23:10;;;;;;;2.22;2.13;;;30.40;99.80;;;;;;5072397;28;20244;-60
2021/06/27 11:25:40;;;;;;;2.33;2.10;;;30.50;99.50;;;;;;5073788;28;20179;-60
2021/06/27 11:28:21;;;;;;;2.17;2.08;;;30.30;98.80;;;;;;5072567;28;20204;-60
2021/06/27 11:30:53;;;;;;;2.42;2.33;;;30.00;99.70;;;;;;5073296;28;20570;-51
2021/06/27 11:33:25;;;;;;;2.40;2.30;;;29.80;99.30;;;;;;5073388;28;20166;-53
2021/06/27 11:35:55;;;;;;;2.10;2.00;;;29.40;98.20;;;;;;5072512;28;20191;-59
2021/06/27 11:38:48;;;;;;;1.95;1.85;;;29.30;98.00;;;;;;5073346;28;20201;-54
2021/06/27 11:41:20;;;;;;;2.28;2.17;;;29.00;98.70;;;;;;5074633;28;20175;-56
2021/06/27 11:43:55;;;;;;;1.92;1.83;;;29.30;99.90;;;;;;5077338;28;20239;-53
2021/06/27 11:46:36;;;;;;;1.73;1.63;;;29.70;97.60;;;;;;5077187;28;20170;-59
2021/06/27 11:49:10;;;;;;;2.33;1.80;;;29.90;97.20;;;;;;5077358;28;20250;-53
2021/06/27 11:51:37;;;;;;;2.03;1.92;;;30.10;97.50;;;;;;5076585;28;20595;-58
2021/06/27 11:54:04;;;;;;;2.38;2.20;;;30.30;96.80;;;;;;5076636;28;20607;-59
2021/06/27 11:57:07;;;;;;;1.95;1.75;;;30.50;97.20;;;;;;5077762;28;20182;-55
2021/06/27 11:59:38;;;;;;;1.80;1.70;;;30.30;94.20;;;;;;5076032;28;20202;-57
2021/06/27 12:02:15;;;;;;;1.85;1.75;;;30.20;96.30;;;;;;5076615;28;20573;-60
2021/06/27 12:04:43;;;;;;;1.77;1.67;;;30.40;96.80;;;;;;5076020;28;20206;-59
2021/06/27 12:07:36;;;;;;;1.90;1.80;;;30.70;97.50;;;;;;5076915;28;20201;-53
2021/06/27 12:10:20;;;;;;;1.90;1.80;;;30.70;94.30;;;;;;5075833;28;20677;-57
2021/06/27 12:13:01;;;;;;;1.73;1.63;;;30.60;96.00;;;;;;5076790;28;20616;-55
2021/06/27 12:15:33;;;;;;;2.35;1.77;;;30.30;94.10;;;;;;5076539;28;20170;-58
2021/06/27 12:18:03;;;;;;;1.90;1.80;;;30.20;99.40;;;;;;5076816;28;20297;-57
2021/06/27 12:20:38;;;;;;;2.35;1.98;;;30.30;96.10;;;;;;5076644;28;20170;-57
2021/06/27 12:23:09;;;;;;;2.20;2.10;;;30.20;96.20;;;;;;5075448;28;20182;-60
2021/06/27 12:25:44;;;;;;;2.17;2.08;;;30.20;94.60;;;;;;5076732;28;20181;-58
2021/06/27 12:28:13;;;;;;;2.67;1.95;;;30.20;98.70;;;;;;5075863;28;20186;-53
2021/06/27 12:30:40;;;;;;;2.03;1.80;;;30.60;99.90;;;;;;5076552;28;20171;-56
2021/06/27 12:33:11;;;;;;;1.77;1.67;;;30.80;95.60;;;;;;5076229;28;20177;-60
2021/06/27 12:35:39;;;;;;;1.75;1.65;;;30.80;95.50;;;;;;5075557;28;20190;-59
2021/06/27 12:38:06;;;;;;;1.60;1.50;;;30.80;93.90;;;;;;5076432;28;20241;-58
2021/06/27 12:40:32;;;;;;;1.52;1.42;;;30.80;93.80;;;;;;5076580;28;20627;-55
2021/06/27 12:42:58;;;;;;;1.80;1.70;;;30.50;92.50;;;;;;5075112;28;20170;-55
2021/06/27 12:45:24;;;;;;;1.75;1.65;;;30.30;92.10;;;;;;5076101;28;20171;-58
2021/06/27 12:47:51;;;;;;;1.60;1.50;;;30.30;93.60;;;;;;5074408;28;20264;-56